This is the latest recevied weather packets stored in our database for station/object EA4URC-10. If no packets are shown the sender has not sent any weather packets the latest 10 day(s).
| Time | Temp. | Humidity | Pressure | Rain* | Wind** | Luminosity | Snow |
|---|---|---|---|---|---|---|---|
| 1777496595 | 10.56° C | 100% | 1029.6 hPa | - | - | - | - |
| 1777494800 | 10.56° C | 100% | 1028.7 hPa | - | - | - | - |
| 1777493000 | 11.11° C | 100% | 1028.7 hPa | - | - | - | - |
| 1777491199 | 11.67° C | 100% | 1028 hPa | - | - | - | - |
| 1777489399 | 12.22° C | 100% | 1027.4 hPa | - | - | - | - |
| 1777487598 | 12.22° C | 99% | 1027.1 hPa | - | - | - | - |
| 1777485798 | 12.78° C | 95% | 1026.8 hPa | - | - | - | - |
| 1777483999 | 13.89° C | 81% | 1026.8 hPa | - | - | - | - |
| 1777482197 | 14.44° C | 87% | 1026.6 hPa | - | - | - | - |
| 1777480396 | 12.78° C | 91% | 1026.6 hPa | - | - | - | - |
| 1777478595 | 12.78° C | 94% | 1026.8 hPa | - | - | - | - |
| 1777476795 | 13.33° C | 100% | 1026.7 hPa | - | - | - | - |
| 1777474995 | 16.67° C | 54% | 1026.3 hPa | - | - | - | - |
| 1777473200 | 16.67° C | 52% | 1026.5 hPa | - | - | - | - |
| 1777471400 | 17.78° C | 46% | 1026.5 hPa | - | - | - | - |
| 1777469602 | 20° C | 44% | 1026.7 hPa | - | - | - | - |
| 1777467799 | 20.56° C | 42% | 1026.8 hPa | - | - | - | - |
| 1777466431 | 20.56° C | 41% | 1026.8 hPa | - | - | - | - |
| 1777465999 | 20.56° C | 41% | 1026.8 hPa | - | - | - | - |
| 1777464197 | 20.56° C | 41% | 1027.1 hPa | - | - | - | - |
| 1777462397 | 21.11° C | 40% | 1027.3 hPa | - | - | - | - |
| 1777460598 | 21.11° C | 43% | 1027.4 hPa | - | - | - | - |
| 1777458796 | 19.44° C | 50% | 1027.5 hPa | - | - | - | - |
| 1777456995 | 16.67° C | 70% | 1027.2 hPa | - | - | - | - |
| 1777455194 | 12.78° C | 97% | 1027 hPa | - | - | - | - |
* Rain since midnight (hover to see other rain measurements)
** Current wind speed in m/s (hover to see current wind gust speed)